Time;durP1;ratioP1;P1;durP2;ratioP2;P2;SDS_P1;SDS_P2;PMS_P1;PMS_P2;Temp;Humidity;BMP_temperature;BMP_pressure;BME280_temperature;BME280_humidity;BME280_pressure;Samples;Min_cycle;Max_cycle;Signal;HPM_P1;HPM_P2
2022/11/25 00:00:15;;;;;;;710.72;652.78;;;;;;;4.75;77.48;101116.78;697700;28;45248;-67
2022/11/25 00:00:37;;;;;;;702.00;644.15;;;;;;;4.77;77.04;101116.66;697593;28;44345;-66
2022/11/25 00:01:06;;;;;;;713.60;655.35;;;;;;;4.77;77.09;101113.97;697514;28;44406;-66
2022/11/25 00:01:28;;;;;;;702.13;644.22;;;;;;;4.75;77.49;101116.78;694480;28;137427;-67
2022/11/25 00:01:50;;;;;;;709.83;651.78;;;;;;;4.78;77.06;101115.66;697584;28;45214;-67
2022/11/25 00:02:12;;;;;;;720.83;662.58;;;;;;;4.79;77.11;101117.38;696718;28;44301;-66
2022/11/25 00:02:33;;;;;;;730.47;671.97;;;;;;;4.79;77.11;101112.03;697667;28;45355;-66
2022/11/25 00:02:55;;;;;;;722.50;664.30;;;;;;;4.78;77.02;101121.00;697451;28;45212;-66
2022/11/25 00:03:16;;;;;;;715.70;657.58;;;;;;;4.81;76.97;101118.09;698165;28;23402;-66
2022/11/25 00:03:38;;;;;;;723.22;664.95;;;;;;;4.81;76.99;101118.09;698442;28;21292;-67
2022/11/25 00:04:00;;;;;;;721.33;662.95;;;;;;;4.80;76.97;101119.09;697668;28;44392;-66
2022/11/25 00:04:22;;;;;;;716.65;658.47;;;;;;;4.79;77.16;101123.56;696791;28;70045;-67
2022/11/25 00:04:45;;;;;;;720.65;662.33;;;;;;;4.81;77.13;101118.09;698267;28;22364;-67
2022/11/25 00:05:07;;;;;;;716.08;657.75;;;;;;;4.80;77.08;101119.09;696474;28;67296;-67
2022/11/25 00:05:28;;;;;;;711.85;653.80;;;;;;;4.80;77.02;101122.59;697481;28;46409;-67
2022/11/25 00:05:50;;;;;;;720.80;662.70;;;;;;;4.78;76.78;101121.88;698384;28;22388;-67
2022/11/25 00:06:16;;;;;;;725.78;667.38;;;;;;;4.81;77.11;101121.63;696749;28;69465;-67
2022/11/25 00:06:37;;;;;;;721.20;662.83;;;;;;;4.82;77.01;101125.13;691701;28;136699;-67
2022/11/25 00:06:59;;;;;;;721.30;662.90;;;;;;;4.81;77.07;101121.63;695673;28;23281;-67
2022/11/25 00:07:21;;;;;;;697.13;639.40;;;;;;;4.80;76.96;101121.75;694868;28;45198;-67
2022/11/25 00:07:42;;;;;;;704.13;646.30;;;;;;;4.83;76.87;101125.00;695555;28;23471;-67
2022/11/25 00:08:03;;;;;;;699.25;641.67;;;;;;;4.83;76.86;101122.34;693180;28;1933;-67
2022/11/25 00:08:28;;;;;;;686.95;629.80;;;;;;;4.77;76.83;101111.31;691647;28;46298;-67
2022/11/25 00:08:57;;;;;;;702.10;644.28;;;;;;;4.81;76.83;101116.28;689494;28;114488;-67
2022/11/25 00:09:19;;;;;;;728.83;670.25;;;;;;;4.82;77.13;101123.31;688544;28;138082;-67
2022/11/25 00:09:40;;;;;;;738.67;679.75;;;;;;;4.83;76.64;101124.16;693486;28;45230;-67
2022/11/25 00:10:02;;;;;;;734.90;676.10;;;;;;;4.82;76.71;101122.47;697228;28;23526;-67
2022/11/25 00:10:28;;;;;;;713.42;655.13;;;;;;;4.82;76.82;101120.63;696307;28;67485;-67
2022/11/25 00:10:50;;;;;;;716.75;658.65;;;;;;;4.82;76.60;101122.47;694292;28;136592;-67
2022/11/25 00:11:12;;;;;;;720.35;662.13;;;;;;;4.81;76.84;101121.63;698210;28;22373;-67
2022/11/25 00:11:40;;;;;;;713.08;654.85;;;;;;;4.77;76.72;101112.16;699989;28;37616;-67
2022/11/25 00:12:01;;;;;;;718.70;660.53;;;;;;;4.79;76.73;101120.03;693954;28;115095;-67
2022/11/25 00:12:22;;;;;;;715.85;657.83;;;;;;;4.79;76.60;101122.72;697492;28;44393;-67
2022/11/25 00:12:44;;;;;;;709.92;651.83;;;;;;;4.79;76.84;101122.72;694504;28;22295;-67
2022/11/25 00:13:05;;;;;;;726.67;668.17;;;;;;;4.79;76.79;101123.56;696294;28;22383;-67
2022/11/25 00:13:27;;;;;;;729.53;670.90;;;;;;;4.79;76.93;101118.22;694885;28;46356;-67
2022/11/25 00:13:49;;;;;;;729.97;671.28;;;;;;;4.76;76.84;101115.78;697199;28;46400;-67
2022/11/25 00:14:12;;;;;;;720.20;661.97;;;;;;;4.79;76.71;101123.56;697459;28;45341;-67
2022/11/25 00:14:34;;;;;;;721.30;663.00;;;;;;;4.79;76.98;101126.25;695465;28;44388;-67
2022/11/25 00:14:55;;;;;;;733.22;674.58;;;;;;;4.79;77.07;101118.22;693871;28;44496;-67
2022/11/25 00:15:16;;;;;;;720.90;662.55;;;;;;;4.79;76.98;101120.88;694332;28;46495;-67
2022/11/25 00:15:38;;;;;;;721.83;663.45;;;;;;;4.79;76.92;101118.22;694267;28;22231;-68
2022/11/25 00:16:01;;;;;;;720.05;661.72;;;;;;;4.78;77.07;101112.97;693444;28;23530;-67
2022/11/25 00:16:25;;;;;;;707.38;649.50;;;;;;;4.78;77.00;101116.53;690035;28;92092;-67
2022/11/25 00:16:46;;;;;;;702.72;644.92;;;;;;;4.79;77.19;101118.22;691043;28;92246;-67
2022/11/25 00:17:07;;;;;;;691.60;634.08;;;;;;;4.79;77.06;101120.88;694632;28;22439;-67
2022/11/25 00:17:28;;;;;;;694.30;636.90;;;;;;;4.80;76.92;101111.06;696020;28;23431;-67
2022/11/25 00:17:51;;;;;;;695.10;637.60;;;;;;;4.80;77.09;101119.09;698163;28;22399;-67
2022/11/25 00:18:12;;;;;;;702.42;644.78;;;;;;;4.79;76.98;101114.69;696566;28;69430;-67
2022/11/25 00:18:34;;;;;;;703.40;645.58;;;;;;;4.80;77.22;101111.88;697590;28;45225;-67
2022/11/25 00:18:56;;;;;;;730.47;671.95;;;;;;;4.80;77.00;101125.28;697492;28;45075;-67
2022/11/25 00:19:19;;;;;;;731.28;672.65;;;;;;;4.82;77.05;101117.13;697388;28;46267;-67
2022/11/25 00:19:40;;;;;;;719.75;661.25;;;;;;;4.81;77.04;101113.59;697168;28;44363;-67
2022/11/25 00:20:04;;;;;;;716.45;658.10;;;;;;;4.81;77.11;101115.41;698086;28;22381;-67
2022/11/25 00:20:26;;;;;;;711.05;652.88;;;;;;;4.81;77.23;101118.94;694806;28;115094;-67
2022/11/25 00:20:47;;;;;;;706.67;648.78;;;;;;;4.82;77.31;101123.31;698297;28;22391;-67
2022/11/25 00:21:12;;;;;;;709.30;651.33;;;;;;;4.81;77.43;101112.72;698404;28;22477;-67
2022/11/25 00:21:33;;;;;;;706.05;647.90;;;;;;;4.84;77.23;101112.47;693396;28;115973;-67
2022/11/25 00:21:55;;;;;;;718.67;660.22;;;;;;;4.84;77.11;101115.13;694591;28;23801;-67
2022/11/25 00:22:17;;;;;;;707.88;649.92;;;;;;;4.83;77.07;101111.63;689788;28;23484;-67
2022/11/25 00:22:38;;;;;;;738.72;680.10;;;;;;;4.85;77.19;101119.53;689872;28;69463;-67
2022/11/25 00:22:59;;;;;;;726.03;667.72;;;;;;;4.84;77.17;101112.47;694286;28;22422;-67
2022/11/25 00:23:21;;;;;;;725.90;667.58;;;;;;;4.85;77.13;101115.00;692608;28;22430;-67
2022/11/25 00:23:44;;;;;;;731.35;672.92;;;;;;;4.85;77.08;101114.19;692163;28;44219;-67
2022/11/25 00:24:06;;;;;;;712.35;654.33;;;;;;;4.83;77.06;101111.63;696115;28;69443;-67
2022/11/25 00:24:27;;;;;;;720.40;662.25;;;;;;;4.84;77.15;101121.38;697630;28;45246;-67
2022/11/25 00:24:49;;;;;;;722.80;664.45;;;;;;;4.84;77.30;101118.69;697981;28;22534;-65
2022/11/25 00:25:11;;;;;;;700.60;642.67;;;;;;;4.85;77.13;101114.19;697329;28;47237;-66
2022/11/25 00:25:34;;;;;;;712.67;654.60;;;;;;;4.85;77.24;101115.00;697249;28;44439;-66
2022/11/25 00:25:56;;;;;;;708.40;650.33;;;;;;;4.85;77.26;101117.69;695191;28;69488;-65
2022/11/25 00:26:17;;;;;;;702.85;644.95;;;;;;;4.84;77.32;101112.47;694162;28;44394;-65
2022/11/25 00:26:39;;;;;;;719.40;661.10;;;;;;;4.86;77.33;101110.53;695378;28;22407;-66
2022/11/25 00:27:03;;;;;;;707.30;649.28;;;;;;;4.87;77.38;101120.25;694237;28;37400;-65
2022/11/25 00:27:25;;;;;;;715.22;657.05;;;;;;;4.88;77.42;101116.59;695461;28;46406;-65
2022/11/25 00:27:46;;;;;;;715.53;657.40;;;;;;;4.86;77.34;101113.22;698303;28;22419;-65
2022/11/25 00:28:09;;;;;;;734.00;675.28;;;;;;;4.87;77.16;101115.75;696533;28;46513;-65
2022/11/25 00:28:30;;;;;;;746.55;687.50;;;;;;;4.87;77.33;101107.72;696956;28;45256;-65
2022/11/25 00:28:52;;;;;;;725.05;666.63;;;;;;;4.88;77.40;101112.06;693798;28;45367;-65
2022/11/25 00:29:13;;;;;;;712.08;653.97;;;;;;;4.87;77.21;101115.75;694942;28;22224;-65
2022/11/25 00:29:35;;;;;;;708.40;650.40;;;;;;;4.88;77.29;101111.25;694637;28;23085;-66
2022/11/25 00:29:57;;;;;;;698.63;640.85;;;;;;;4.90;77.26;101111.94;693657;28;57342;-65
2022/11/25 00:30:18;;;;;;;717.63;659.50;;;;;;;4.89;77.46;101115.63;693843;28;23465;-65
2022/11/25 00:30:39;;;;;;;721.95;663.63;;;;;;;4.89;77.25;101110.28;688849;28;46336;-66
2022/11/25 00:31:05;;;;;;;737.22;678.58;;;;;;;4.91;77.18;101115.50;689830;28;23469;-66
2022/11/25 00:31:28;;;;;;;725.90;667.50;;;;;;;4.88;77.12;101112.06;685844;28;136490;-66
2022/11/25 00:31:50;;;;;;;719.25;660.95;;;;;;;4.91;77.21;101116.34;687529;28;92211;-66
2022/11/25 00:32:11;;;;;;;705.95;648.03;;;;;;;4.91;77.45;101118.16;688746;28;46276;-65
2022/11/25 00:32:32;;;;;;;707.72;649.80;;;;;;;4.93;77.32;101118.88;691207;28;22376;-65
2022/11/25 00:32:54;;;;;;;714.40;656.20;;;;;;;4.92;77.30;101115.38;693204;28;22419;-66
2022/11/25 00:33:17;;;;;;;716.42;658.22;;;;;;;4.93;77.32;101113.53;693869;28;69595;-66
2022/11/25 00:33:39;;;;;;;734.17;675.72;;;;;;;4.91;77.27;101110.13;694587;28;45322;-66
2022/11/25 00:34:01;;;;;;;733.38;674.88;;;;;;;4.93;77.39;101117.03;691553;28;44199;-66
2022/11/25 00:34:23;;;;;;;734.88;676.25;;;;;;;4.92;77.00;101110.00;691680;28;46341;-66
2022/11/25 00:34:44;;;;;;;741.33;682.42;;;;;;;4.93;77.35;101114.38;692556;28;46704;-65
2022/11/25 00:35:06;;;;;;;740.88;681.97;;;;;;;4.93;77.33;101117.03;695238;28;22400;-66
2022/11/25 00:35:33;;;;;;;738.45;679.70;;;;;;;4.94;77.46;101110.72;694507;28;44398;-65
2022/11/25 00:36:01;;;;;;;741.65;682.80;;;;;;;4.94;77.20;101110.72;692992;28;137966;-65
2022/11/25 00:36:25;;;;;;;710.83;652.90;;;;;;;4.95;77.26;101114.22;693320;28;161453;-65
2022/11/25 00:36:46;;;;;;;714.53;656.40;;;;;;;4.95;77.17;101106.19;695852;28;91905;-66
2022/11/25 00:37:07;;;;;;;736.35;677.67;;;;;;;4.95;77.00;101120.41;694888;28;46303;-65
2022/11/25 00:37:34;;;;;;;734.50;675.90;;;;;;;4.95;77.29;101111.56;695571;28;21571;-66
2022/11/25 00:37:59;;;;;;;715.55;657.00;;;;;;;4.95;77.35;101112.41;691016;28;138241;-66
2022/11/25 00:38:20;;;;;;;734.20;675.63;;;;;;;4.97;77.35;101114.94;695516;28;23494;-65
2022/11/25 00:38:41;;;;;;;734.08;675.45;;;;;;;4.95;77.09;101112.41;694712;28;44376;-65
2022/11/25 00:39:04;;;;;;;740.08;681.30;;;;;;;4.96;77.09;101116.78;695621;28;23663;-65
2022/11/25 00:39:27;;;;;;;742.92;683.97;;;;;;;4.97;77.00;101117.63;692405;28;69651;-65
2022/11/25 00:39:48;;;;;;;732.05;673.50;;;;;;;4.97;77.11;101114.94;693832;28;67942;-66
2022/11/25 00:40:11;;;;;;;730.20;671.63;;;;;;;4.98;77.21;101113.97;695370;28;23453;-66
2022/11/25 00:40:33;;;;;;;719.38;661.15;;;;;;;4.99;76.87;101115.69;693697;28;68364;-65
2022/11/25 00:44:35;;;;;;;741.28;682.45;;;;;;;4.99;77.09;101116.50;692724;28;137624;-65
2022/11/25 00:44:57;;;;;;;721.80;663.30;;;;;;;5.00;77.00;101117.34;693112;28;137806;-65
2022/11/25 00:45:18;;;;;;;717.25;658.92;;;;;;;4.99;76.81;101119.19;694862;28;22387;-65
2022/11/25 00:45:39;;;;;;;722.40;664.08;;;;;;;4.99;76.74;101119.19;694268;28;46578;-65
2022/11/25 00:46:01;;;;;;;713.42;655.28;;;;;;;4.98;76.84;101108.63;697131;28;21314;-65
2022/11/25 00:46:23;;;;;;;716.35;658.20;;;;;;;4.99;77.00;101113.84;698142;28;22419;-65
2022/11/25 00:46:44;;;;;;;720.30;662.03;;;;;;;4.99;77.07;101121.03;692964;28;70536;-65
2022/11/25 00:47:10;;;;;;;711.78;653.67;;;;;;;4.99;76.74;101119.19;693905;28;23439;-69
2022/11/25 00:47:32;;;;;;;721.03;662.75;;;;;;;4.98;76.88;101114.81;691107;28;137836;-66
2022/11/25 00:47:53;;;;;;;720.30;661.95;;;;;;;4.99;76.77;101121.03;691726;28;44357;-65
2022/11/25 00:48:14;;;;;;;712.58;654.67;;;;;;;5.00;76.86;101112.00;692465;28;23480;-65
2022/11/25 00:48:36;;;;;;;707.30;649.33;;;;;;;4.99;77.09;101118.34;691463;28;46394;-65
2022/11/25 00:48:57;;;;;;;705.50;647.60;;;;;;;4.97;76.96;101118.47;693298;28;23453;-65
2022/11/25 00:49:20;;;;;;;733.10;674.33;;;;;;;5.00;76.99;101118.22;693992;28;44367;-65
2022/11/25 00:49:43;;;;;;;723.38;664.97;;;;;;;5.00;76.79;101114.69;695105;28;46395;-65
2022/11/25 00:50:06;;;;;;;739.60;680.80;;;;;;;5.00;77.01;101120.91;695094;28;90350;-65
2022/11/25 00:50:28;;;;;;;727.22;668.70;;;;;;;5.01;76.96;101117.22;696698;28;46324;-65
2022/11/25 00:50:49;;;;;;;708.50;650.42;;;;;;;5.01;77.12;101116.38;695985;28;43344;-65
2022/11/25 00:51:11;;;;;;;721.20;662.85;;;;;;;4.98;76.94;101114.81;695229;28;22344;-65
2022/11/25 00:51:33;;;;;;;729.40;670.88;;;;;;;4.99;77.08;101121.03;693577;28;46328;-65
2022/11/25 00:51:55;;;;;;;741.38;682.60;;;;;;;4.99;76.65;101121.88;691758;28;23448;-65
2022/11/25 00:52:18;;;;;;;754.55;695.33;;;;;;;5.01;77.12;101121.75;690427;28;67490;-65
2022/11/25 00:52:39;;;;;;;728.53;670.08;;;;;;;4.99;76.89;101119.19;692744;28;44389;-65
2022/11/25 00:53:00;;;;;;;710.65;652.42;;;;;;;5.01;77.12;101119.91;691073;28;46241;-65
2022/11/25 00:53:24;;;;;;;722.08;663.55;;;;;;;5.01;76.91;101127.94;694356;28;21509;-65
2022/11/25 00:53:45;;;;;;;728.28;669.92;;;;;;;4.99;76.72;101119.19;693551;28;67377;-65
2022/11/25 00:54:06;;;;;;;732.83;674.38;;;;;;;5.00;76.81;101123.56;690520;28;44376;-65
2022/11/25 00:54:27;;;;;;;718.67;660.63;;;;;;;4.99;76.94;101115.69;689830;28;23478;-66
2022/11/25 00:54:51;;;;;;;726.10;667.83;;;;;;;5.01;76.99;101125.25;687779;28;21534;-65
2022/11/25 00:55:13;;;;;;;742.60;683.58;;;;;;;5.01;76.76;101127.09;687301;28;92238;-66
2022/11/25 00:56:11;;;;;;;734.55;676.03;;;;;;;5.01;77.02;101132.44;690714;28;135703;-66
2022/11/25 00:56:33;;;;;;;728.72;670.30;;;;;;;5.00;76.92;101123.56;691388;28;46157;-66
2022/11/25 00:56:55;;;;;;;724.63;666.30;;;;;;;4.99;76.80;101132.56;690922;28;21576;-66
2022/11/25 00:57:18;;;;;;;737.15;678.38;;;;;;;4.96;76.77;101122.13;688463;28;46437;-66
2022/11/25 00:57:39;;;;;;;741.35;682.63;;;;;;;4.98;76.98;101135.38;685253;28;69456;-66
2022/11/25 00:58:01;;;;;;;722.25;663.97;;;;;;;4.96;77.00;101122.13;687175;28;21591;-66
2022/11/25 00:58:22;;;;;;;728.38;669.80;;;;;;;4.97;77.08;101126.50;684938;28;11099;-66
2022/11/25 00:58:45;;;;;;;746.83;687.95;;;;;;;4.96;77.09;101130.16;685215;28;45204;-66
2022/11/25 00:59:06;;;;;;;728.72;670.25;;;;;;;4.96;77.05;101127.50;686054;28;44386;-66
2022/11/25 00:59:27;;;;;;;719.83;661.58;;;;;;;4.96;77.05;101132.84;685978;28;46388;-66
2022/11/25 00:59:49;;;;;;;730.72;672.33;;;;;;;4.97;77.27;101136.34;687044;28;23345;-67
2022/11/25 01:00:12;;;;;;;736.42;678.00;;;;;;;4.95;76.72;101133.81;684334;28;46374;-67
2022/11/25 01:00:35;;;;;;;715.58;657.47;;;;;;;4.97;76.80;101131.00;684917;28;115077;-67
2022/11/25 01:01:00;;;;;;;727.92;669.53;;;;;;;4.95;77.15;101125.78;690826;28;23471;-66
2022/11/25 01:01:21;;;;;;;722.08;663.75;;;;;;;4.96;77.08;101130.16;690803;28;114948;-66
2022/11/25 01:01:43;;;;;;;721.15;662.85;;;;;;;4.96;77.22;101126.66;694659;28;23697;-66
2022/11/25 01:02:06;;;;;;;730.28;671.58;;;;;;;4.95;77.25;101128.44;694500;28;46271;-66
2022/11/25 01:02:27;;;;;;;738.97;680.30;;;;;;;4.95;77.15;101123.09;696532;28;67493;-66
2022/11/25 01:02:49;;;;;;;731.00;672.40;;;;;;;4.94;77.33;101129.44;694167;28;44452;-66
2022/11/25 01:03:10;;;;;;;741.65;682.85;;;;;;;4.93;77.14;101121.56;695421;28;21524;-66
2022/11/25 01:03:33;;;;;;;738.33;679.58;;;;;;;4.94;77.05;101128.63;694078;28;22458;-66
2022/11/25 01:03:56;;;;;;;732.78;674.28;;;;;;;4.94;77.22;101132.13;694307;28;46323;-66
2022/11/25 01:04:17;;;;;;;741.78;683.03;;;;;;;4.93;77.31;101124.22;693493;28;69394;-67
2022/11/25 01:04:38;;;;;;;737.60;679.05;;;;;;;4.93;77.42;101125.06;696271;28;23433;-66
2022/11/25 01:05:00;;;;;;;734.08;675.47;;;;;;;4.93;77.33;101121.56;697996;28;22388;-66
2022/11/25 01:05:25;;;;;;;724.53;666.03;;;;;;;4.93;77.12;101132.25;693639;28;46324;-67
2022/11/25 01:05:48;;;;;;;731.55;672.70;;;;;;;4.93;77.04;101124.22;690687;28;138068;-66
2022/11/25 01:06:10;;;;;;;737.65;679.28;;;;;;;4.90;77.14;101125.31;693763;28;22204;-66
2022/11/25 01:06:32;;;;;;;730.08;671.83;;;;;;;4.93;77.25;101132.25;690787;28;69425;-67
2022/11/25 01:06:55;;;;;;;719.63;661.47;;;;;;;4.92;77.09;101128.75;691673;28;22428;-66
2022/11/25 01:07:17;;;;;;;730.30;671.80;;;;;;;4.93;77.36;101130.41;691857;28;92062;-66
2022/11/25 01:07:38;;;;;;;736.67;678.05;;;;;;;4.93;77.43;101133.09;694452;28;46426;-66
2022/11/25 01:08:00;;;;;;;709.03;651.03;;;;;;;4.94;77.22;101137.47;695507;28;21569;-67
2022/11/25 01:08:21;;;;;;;743.97;685.17;;;;;;;4.93;77.28;101127.75;693459;28;23288;-67
2022/11/25 01:08:43;;;;;;;732.15;673.65;;;;;;;4.93;77.53;101121.56;694472;28;44393;-66
2022/11/25 01:09:05;;;;;;;750.58;691.60;;;;;;;4.92;77.42;101126.06;694730;28;46628;-66
2022/11/25 01:09:27;;;;;;;732.80;674.33;;;;;;;4.95;77.60;101128.44;691828;28;45207;-66
2022/11/25 01:09:49;;;;;;;721.85;663.60;;;;;;;4.95;77.48;101128.44;688810;28;45236;-66
2022/11/25 01:10:11;;;;;;;720.38;662.15;;;;;;;4.95;77.52;101124.94;689149;28;68757;-66
2022/11/25 01:10:33;;;;;;;724.72;666.35;;;;;;;4.95;77.54;101128.44;692638;28;21352;-66
2022/11/25 01:10:59;;;;;;;724.25;665.90;;;;;;;4.94;77.63;101121.41;691698;28;46319;-66
2022/11/25 01:11:21;;;;;;;733.13;674.50;;;;;;;4.96;77.38;101123.97;690033;28;137673;-66
2022/11/25 01:11:43;;;;;;;727.70;669.33;;;;;;;4.96;77.46;101121.28;693890;28;46332;-66
2022/11/25 01:12:05;;;;;;;715.75;657.60;;;;;;;4.96;77.59;101130.16;686302;28;70275;-66
2022/11/25 01:12:26;;;;;;;738.40;679.85;;;;;;;4.95;77.65;101125.78;691270;28;21563;-66
2022/11/25 01:12:47;;;;;;;736.40;677.80;;;;;;;4.94;77.49;101118.75;690355;28;22356;-66
2022/11/25 01:13:11;;;;;;;738.13;679.45;;;;;;;4.94;77.24;101125.94;687540;28;90501;-66
2022/11/25 01:13:33;;;;;;;729.47;671.03;;;;;;;4.93;77.44;101122.38;688093;28;44373;-66
2022/11/25 01:13:55;;;;;;;726.05;667.67;;;;;;;4.90;77.35;101116.47;688491;28;23517;-66
2022/11/25 01:14:17;;;;;;;723.78;665.45;;;;;;;4.91;77.26;101127.03;686462;28;44395;-67
2022/11/25 01:14:41;;;;;;;729.45;671.03;;;;;;;4.90;77.62;101119.13;684458;28;114790;-66
2022/11/25 01:15:03;;;;;;;721.80;663.28;;;;;;;4.90;77.61;101122.66;686632;28;44309;-66
2022/11/25 01:15:24;;;;;;;711.22;653.17;;;;;;;4.90;77.32;101127.16;691017;28;22449;-66
2022/11/25 01:15:46;;;;;;;714.58;656.50;;;;;;;4.90;77.61;101124.50;687719;28;20176;-66
2022/11/25 01:16:10;;;;;;;725.85;667.35;;;;;;;4.89;77.48;101123.66;688979;28;46508;-66
2022/11/25 01:16:32;;;;;;;727.42;669.00;;;;;;;4.89;77.61;101126.31;687474;28;90673;-66
2022/11/25 01:16:54;;;;;;;716.90;658.70;;;;;;;4.90;77.43;101119.13;688126;28;46676;-66
2022/11/25 01:17:15;;;;;;;727.45;668.92;;;;;;;4.87;77.71;101122.91;688590;28;44379;-66
2022/11/25 01:17:37;;;;;;;748.70;689.85;;;;;;;4.90;77.46;101119.13;692174;28;22390;-66
2022/11/25 01:17:58;;;;;;;752.90;693.88;;;;;;;4.88;77.68;101119.28;691143;28;46381;-67
2022/11/25 01:18:19;;;;;;;728.22;669.88;;;;;;;4.88;77.67;101122.78;691530;28;23485;-66
2022/11/25 01:18:42;;;;;;;720.55;662.38;;;;;;;4.87;77.83;101118.44;692694;28;22410;-66
2022/11/25 01:19:03;;;;;;;737.63;678.97;;;;;;;4.91;77.54;101120.84;691804;28;69421;-66
2022/11/25 01:19:25;;;;;;;735.63;676.92;;;;;;;4.89;77.75;101112.94;695113;28;22378;-66
2022/11/25 01:19:47;;;;;;;734.15;675.47;;;;;;;4.90;77.86;101116.47;695224;28;45162;-66
2022/11/25 01:20:09;;;;;;;740.78;681.85;;;;;;;4.93;77.52;101117.03;696260;28;70380;-67
2022/11/25 01:20:31;;;;;;;726.22;667.83;;;;;;;4.94;77.65;101123.25;696394;28;46778;-66
2022/11/25 01:20:54;;;;;;;745.60;686.72;;;;;;;4.93;77.69;101117.03;695778;28;67323;-66
2022/11/25 01:21:16;;;;;;;750.63;691.65;;;;;;;4.94;77.63;101121.41;698167;28;21503;-66
2022/11/25 01:21:40;;;;;;;727.40;668.95;;;;;;;4.94;77.49;101118.75;694176;28;115080;-66
2022/11/25 01:22:06;;;;;;;741.88;682.92;;;;;;;4.96;77.84;101118.63;693210;28;137881;-67
2022/11/25 01:22:29;;;;;;;730.88;672.28;;;;;;;4.97;77.92;101118.47;691262;28;69106;-66
2022/11/25 01:22:51;;;;;;;751.53;692.53;;;;;;;4.97;77.61;101121.16;692509;28;23489;-66
2022/11/25 01:23:12;;;;;;;750.67;691.53;;;;;;;4.98;77.58;101120.16;690102;28;69440;-66
2022/11/25 01:23:35;;;;;;;745.40;686.53;;;;;;;5.00;77.67;101118.22;692636;28;21519;-66
2022/11/25 01:23:58;;;;;;;728.65;670.25;;;;;;;5.00;77.67;101120.03;691756;28;45239;-66
2022/11/25 01:24:19;;;;;;;741.05;682.47;;;;;;;5.01;77.71;101113.72;690867;28;93200;-67
2022/11/25 01:24:41;;;;;;;738.85;680.20;;;;;;;5.01;77.49;101121.75;695284;28;21324;-66
2022/11/25 01:25:03;;;;;;;746.70;687.60;;;;;;;5.02;77.49;101126.97;693775;28;44412;-67
2022/11/25 01:25:24;;;;;;;730.88;672.33;;;;;;;5.02;77.74;101124.28;692179;28;45213;-66
2022/11/25 01:25:45;;;;;;;736.08;677.35;;;;;;;5.03;77.53;101119.78;694550;28;22212;-66
2022/11/25 01:26:11;;;;;;;724.75;666.38;;;;;;;5.03;77.20;101119.78;694371;28;21565;-67
2022/11/25 01:26:34;;;;;;;727.92;669.53;;;;;;;5.03;77.56;101117.97;689902;28;139098;-66
2022/11/25 01:26:55;;;;;;;746.75;687.75;;;;;;;5.04;77.67;101124.16;692928;28;70304;-66
2022/11/25 01:27:17;;;;;;;749.78;690.85;;;;;;;5.03;77.48;101119.78;695284;28;44392;-67
2022/11/25 01:27:41;;;;;;;730.60;672.15;;;;;;;5.04;77.71;101122.31;696207;28;23696;-67
2022/11/25 01:28:03;;;;;;;726.65;668.30;;;;;;;5.05;77.73;101125.88;691908;28;115249;-66
2022/11/25 01:28:25;;;;;;;721.03;662.80;;;;;;;5.04;77.65;101122.31;695265;28;22451;-67
2022/11/25 01:28:47;;;;;;;743.08;684.25;;;;;;;5.05;77.66;101124.03;693758;28;67487;-67
2022/11/25 01:29:12;;;;;;;726.50;668.08;;;;;;;5.04;77.79;101116.97;692847;28;45211;-66
2022/11/25 01:29:35;;;;;;;716.40;658.33;;;;;;;5.04;77.43;101118.81;692027;28;113584;-66
2022/11/25 01:29:56;;;;;;;726.72;668.45;;;;;;;5.04;77.66;101122.31;691314;28;45200;-67
2022/11/25 01:30:17;;;;;;;732.72;674.47;;;;;;;5.04;77.65;101116.97;691835;28;46371;-67
2022/11/25 01:30:39;;;;;;;736.20;677.78;;;;;;;5.04;77.39;101116.97;692445;28;21533;-67
2022/11/25 01:31:01;;;;;;;727.72;669.22;;;;;;;5.06;77.55;101116.84;690982;28;19497;-64
2022/11/25 01:31:24;;;;;;;753.40;694.35;;;;;;;5.07;77.50;101123.06;691418;28;69247;-66
2022/11/25 01:31:47;;;;;;;744.47;685.58;;;;;;;5.07;77.69;101121.22;690056;28;92396;-67
2022/11/25 01:32:09;;;;;;;755.38;696.20;;;;;;;5.02;77.59;101113.56;693229;28;46254;-67
2022/11/25 01:32:33;;;;;;;747.20;688.30;;;;;;;5.07;77.56;101118.53;692458;28;92220;-67
2022/11/25 01:32:54;;;;;;;750.17;691.15;;;;;;;5.09;77.75;101121.09;692398;28;44014;-67
2022/11/25 01:33:16;;;;;;;751.95;692.92;;;;;;;5.09;77.49;101123.75;693957;28;22390;-67
2022/11/25 01:33:38;;;;;;;742.45;683.72;;;;;;;5.08;77.72;101117.56;691817;28;46304;-67
2022/11/25 01:34:02;;;;;;;740.28;681.58;;;;;;;5.10;77.54;101122.78;690132;28;45269;-67
2022/11/25 01:34:25;;;;;;;737.65;679.05;;;;;;;5.11;77.42;101119.13;687055;28;90720;-67
2022/11/25 01:34:46;;;;;;;743.70;684.80;;;;;;;5.10;77.54;101118.28;689147;28;68328;-67
2022/11/25 01:35:09;;;;;;;753.70;694.38;;;;;;;5.12;77.59;101113.63;691699;28;44393;-67
2022/11/25 01:35:31;;;;;;;730.17;671.67;;;;;;;5.12;77.31;101113.63;690678;28;69358;-67
2022/11/25 01:35:52;;;;;;;740.65;681.97;;;;;;;5.13;77.43;101119.84;693896;28;21604;-67
2022/11/25 01:36:15;;;;;;;745.10;686.38;;;;;;;5.12;77.28;101116.31;696203;28;22387;-67
2022/11/25 01:36:38;;;;;;;730.63;672.38;;;;;;;5.08;77.23;101104.19;696683;28;67471;-67
2022/11/25 01:36:59;;;;;;;732.15;673.75;;;;;;;5.13;77.35;101111.81;695766;28;46350;-67
2022/11/25 01:37:20;;;;;;;745.90;687.05;;;;;;;5.14;77.30;101111.69;691726;28;45242;-67
2022/11/25 01:37:42;;;;;;;755.40;696.35;;;;;;;5.15;77.25;101113.34;695466;28;22379;-67
2022/11/25 01:38:03;;;;;;;744.78;685.88;;;;;;;5.15;77.14;101117.88;698105;28;23468;-66
2022/11/25 01:38:25;;;;;;;735.75;677.13;;;;;;;5.15;77.20;101112.53;697278;28;46744;-67
2022/11/25 01:38:52;;;;;;;746.28;687.42;;;;;;;5.13;77.16;101104.63;697076;28;44442;-67
2022/11/25 01:39:16;;;;;;;747.05;688.03;;;;;;;5.15;77.46;101112.53;694088;28;137823;-67
2022/11/25 01:39:39;;;;;;;741.85;683.00;;;;;;;5.14;77.49;101109.00;695533;28;93365;-67
2022/11/25 01:40:00;;;;;;;730.85;672.35;;;;;;;5.15;77.50;101120.56;693688;28;69390;-67
2022/11/25 01:40:21;;;;;;;733.42;674.92;;;;;;;5.14;77.09;101110.81;697927;28;21557;-67
2022/11/25 01:40:42;;;;;;;737.83;679.28;;;;;;;5.15;77.16;101116.03;698034;28;21519;-67
2022/11/25 01:41:05;;;;;;;733.03;674.38;;;;;;;5.16;77.33;101114.22;694504;28;23318;-67
2022/11/25 01:41:31;;;;;;;741.33;682.53;;;;;;;5.16;77.21;101117.75;690981;28;69299;-67
2022/11/25 01:41:52;;;;;;;719.03;660.78;;;;;;;5.17;76.96;101105.19;688573;28;136318;-67
2022/11/25 01:42:13;;;;;;;738.20;679.63;;;;;;;5.17;76.99;101113.22;690982;28;42432;-67
2022/11/25 01:42:41;;;;;;;746.53;687.85;;;;;;;5.18;77.22;101114.94;687562;28;22364;-67
2022/11/25 01:43:03;;;;;;;742.67;684.00;;;;;;;5.17;77.31;101116.78;685066;28;137544;-67
2022/11/25 01:43:25;;;;;;;741.20;682.63;;;;;;;5.16;77.24;101120.44;691811;28;23423;-67
2022/11/25 01:44:08;;;;;;;753.28;694.33;;;;;;;5.15;77.20;101115.19;692449;28;69705;-67
2022/11/25 01:44:30;;;;;;;734.22;675.53;;;;;;;5.15;77.17;101115.19;692745;28;135983;-67
2022/11/25 01:45:37;;;;;;;746.53;687.60;;;;;;;5.14;77.15;101114.38;696221;28;67625;-67
2022/11/25 01:46:08;;;;;;;714.42;656.30;;;;;;;5.12;77.03;101116.31;693030;28;136025;-68
2022/11/25 01:46:39;;;;;;;714.00;655.83;;;;;;;5.12;76.96;101110.94;694266;28;135951;-66
2022/11/25 01:47:04;;;;;;;740.13;681.13;;;;;;;5.13;77.22;101111.81;689111;28;135849;-66